sensor_id;sensor_type;location;lat;lon;timestamp;P1;durP1;ratioP1;P2;durP2;ratioP2
41514;SDS011;27247;48.020;16.720;2023-03-01T00:01:19;63.40;;;30.65;;
41514;SDS011;27247;48.020;16.720;2023-03-01T00:05:31;57.13;;;25.65;;
41514;SDS011;27247;48.020;16.720;2023-03-01T00:09:42;56.42;;;28.27;;
41514;SDS011;27247;48.020;16.720;2023-03-01T00:13:53;46.45;;;23.30;;
41514;SDS011;27247;48.020;16.720;2023-03-01T00:18:05;50.35;;;23.52;;
41514;SDS011;27247;48.020;16.720;2023-03-01T00:22:16;43.33;;;21.23;;
41514;SDS011;27247;48.020;16.720;2023-03-01T00:26:26;44.97;;;21.85;;
41514;SDS011;27247;48.020;16.720;2023-03-01T00:30:37;55.40;;;22.90;;
41514;SDS011;27247;48.020;16.720;2023-03-01T00:34:47;44.70;;;22.42;;
41514;SDS011;27247;48.020;16.720;2023-03-01T00:39:04;48.90;;;22.50;;
41514;SDS011;27247;48.020;16.720;2023-03-01T00:43:18;43.25;;;22.85;;
41514;SDS011;27247;48.020;16.720;2023-03-01T00:47:28;54.95;;;25.25;;
41514;SDS011;27247;48.020;16.720;2023-03-01T00:51:39;51.38;;;24.70;;
41514;SDS011;27247;48.020;16.720;2023-03-01T00:55:51;52.08;;;25.30;;
41514;SDS011;27247;48.020;16.720;2023-03-01T01:00:02;56.67;;;26.05;;
41514;SDS011;27247;48.020;16.720;2023-03-01T01:04:14;59.42;;;26.33;;
41514;SDS011;27247;48.020;16.720;2023-03-01T01:08:24;60.33;;;26.70;;
41514;SDS011;27247;48.020;16.720;2023-03-01T01:12:35;60.85;;;28.45;;
41514;SDS011;27247;48.020;16.720;2023-03-01T01:16:45;56.63;;;26.40;;
41514;SDS011;27247;48.020;16.720;2023-03-01T01:20:56;59.53;;;27.63;;
41514;SDS011;27247;48.020;16.720;2023-03-01T01:25:06;63.40;;;28.98;;
41514;SDS011;27247;48.020;16.720;2023-03-01T01:29:17;61.22;;;30.55;;
41514;SDS011;27247;48.020;16.720;2023-03-01T01:33:27;57.97;;;28.38;;
41514;SDS011;27247;48.020;16.720;2023-03-01T01:37:38;61.90;;;30.13;;
41514;SDS011;27247;48.020;16.720;2023-03-01T01:41:48;58.00;;;29.42;;
41514;SDS011;27247;48.020;16.720;2023-03-01T01:45:59;56.85;;;27.98;;
41514;SDS011;27247;48.020;16.720;2023-03-01T01:50:14;60.90;;;28.30;;
41514;SDS011;27247;48.020;16.720;2023-03-01T01:54:29;60.05;;;29.90;;
41514;SDS011;27247;48.020;16.720;2023-03-01T01:58:44;62.83;;;28.60;;
41514;SDS011;27247;48.020;16.720;2023-03-01T02:02:58;56.17;;;27.92;;
41514;SDS011;27247;48.020;16.720;2023-03-01T02:07:15;61.28;;;29.10;;
41514;SDS011;27247;48.020;16.720;2023-03-01T02:11:29;57.05;;;29.08;;
41514;SDS011;27247;48.020;16.720;2023-03-01T02:15:41;53.17;;;28.00;;
41514;SDS011;27247;48.020;16.720;2023-03-01T02:28:59;60.80;;;29.35;;
41514;SDS011;27247;48.020;16.720;2023-03-01T02:33:09;59.58;;;29.52;;
41514;SDS011;27247;48.020;16.720;2023-03-01T02:37:20;65.25;;;30.92;;
41514;SDS011;27247;48.020;16.720;2023-03-01T02:41:35;57.58;;;26.80;;
41514;SDS011;27247;48.020;16.720;2023-03-01T02:45:50;55.92;;;28.70;;
41514;SDS011;27247;48.020;16.720;2023-03-01T02:50:02;53.97;;;27.35;;
41514;SDS011;27247;48.020;16.720;2023-03-01T02:54:29;52.40;;;27.45;;
41514;SDS011;27247;48.020;16.720;2023-03-01T02:58:43;54.97;;;26.80;;
41514;SDS011;27247;48.020;16.720;2023-03-01T03:03:01;58.40;;;27.50;;
41514;SDS011;27247;48.020;16.720;2023-03-01T03:07:11;56.13;;;27.10;;
41514;SDS011;27247;48.020;16.720;2023-03-01T03:11:21;54.30;;;27.35;;
41514;SDS011;27247;48.020;16.720;2023-03-01T03:15:32;57.35;;;27.65;;
41514;SDS011;27247;48.020;16.720;2023-03-01T03:19:45;55.42;;;28.73;;
41514;SDS011;27247;48.020;16.720;2023-03-01T03:23:56;59.65;;;28.02;;
41514;SDS011;27247;48.020;16.720;2023-03-01T03:28:06;58.90;;;28.23;;
41514;SDS011;27247;48.020;16.720;2023-03-01T03:32:20;60.97;;;28.55;;
41514;SDS011;27247;48.020;16.720;2023-03-01T03:36:30;55.55;;;27.30;;
41514;SDS011;27247;48.020;16.720;2023-03-01T03:40:42;54.53;;;27.50;;
41514;SDS011;27247;48.020;16.720;2023-03-01T03:44:54;57.88;;;27.55;;
41514;SDS011;27247;48.020;16.720;2023-03-01T03:49:04;51.63;;;26.70;;
41514;SDS011;27247;48.020;16.720;2023-03-01T03:53:15;60.33;;;27.80;;
41514;SDS011;27247;48.020;16.720;2023-03-01T03:57:25;54.47;;;27.20;;
41514;SDS011;27247;48.020;16.720;2023-03-01T04:01:35;54.30;;;26.45;;
41514;SDS011;27247;48.020;16.720;2023-03-01T04:05:46;52.22;;;27.30;;
41514;SDS011;27247;48.020;16.720;2023-03-01T04:09:57;62.88;;;26.83;;
41514;SDS011;27247;48.020;16.720;2023-03-01T04:14:07;52.72;;;27.05;;
41514;SDS011;27247;48.020;16.720;2023-03-01T04:18:18;58.65;;;27.10;;
41514;SDS011;27247;48.020;16.720;2023-03-01T04:22:30;53.28;;;26.23;;
41514;SDS011;27247;48.020;16.720;2023-03-01T04:26:41;56.05;;;27.52;;
41514;SDS011;27247;48.020;16.720;2023-03-01T04:30:52;53.83;;;26.58;;
41514;SDS011;27247;48.020;16.720;2023-03-01T04:35:04;56.42;;;27.42;;
41514;SDS011;27247;48.020;16.720;2023-03-01T04:39:15;58.22;;;28.13;;
41514;SDS011;27247;48.020;16.720;2023-03-01T04:43:25;59.63;;;29.08;;
41514;SDS011;27247;48.020;16.720;2023-03-01T04:47:35;66.45;;;30.65;;
41514;SDS011;27247;48.020;16.720;2023-03-01T04:51:48;64.82;;;31.25;;
41514;SDS011;27247;48.020;16.720;2023-03-01T04:55:58;69.55;;;33.25;;
41514;SDS011;27247;48.020;16.720;2023-03-01T05:00:12;61.60;;;30.80;;
41514;SDS011;27247;48.020;16.720;2023-03-01T05:04:30;72.88;;;30.65;;
41514;SDS011;27247;48.020;16.720;2023-03-01T05:08:40;57.78;;;29.48;;
41514;SDS011;27247;48.020;16.720;2023-03-01T05:12:51;67.38;;;30.17;;
41514;SDS011;27247;48.020;16.720;2023-03-01T05:17:02;69.97;;;32.38;;
41514;SDS011;27247;48.020;16.720;2023-03-01T05:21:13;60.65;;;29.08;;
41514;SDS011;27247;48.020;16.720;2023-03-01T05:25:26;68.90;;;32.80;;
41514;SDS011;27247;48.020;16.720;2023-03-01T05:29:36;68.57;;;30.95;;
41514;SDS011;27247;48.020;16.720;2023-03-01T05:33:49;63.63;;;30.98;;
41514;SDS011;27247;48.020;16.720;2023-03-01T05:37:59;69.60;;;31.45;;
41514;SDS011;27247;48.020;16.720;2023-03-01T05:42:10;69.47;;;31.30;;
41514;SDS011;27247;48.020;16.720;2023-03-01T05:46:21;62.45;;;30.60;;
41514;SDS011;27247;48.020;16.720;2023-03-01T05:50:52;68.93;;;32.47;;
41514;SDS011;27247;48.020;16.720;2023-03-01T05:55:02;68.32;;;31.10;;
41514;SDS011;27247;48.020;16.720;2023-03-01T05:59:13;71.57;;;32.03;;
41514;SDS011;27247;48.020;16.720;2023-03-01T06:03:26;74.90;;;33.58;;
41514;SDS011;27247;48.020;16.720;2023-03-01T06:07:36;72.82;;;34.03;;
41514;SDS011;27247;48.020;16.720;2023-03-01T06:11:47;80.03;;;36.85;;
41514;SDS011;27247;48.020;16.720;2023-03-01T06:15:57;70.80;;;33.40;;
41514;SDS011;27247;48.020;16.720;2023-03-01T06:20:12;80.85;;;35.92;;
41514;SDS011;27247;48.020;16.720;2023-03-01T06:24:27;78.47;;;35.63;;
41514;SDS011;27247;48.020;16.720;2023-03-01T06:28:38;74.28;;;33.60;;
41514;SDS011;27247;48.020;16.720;2023-03-01T06:32:49;76.47;;;33.47;;
41514;SDS011;27247;48.020;16.720;2023-03-01T06:36:59;84.45;;;35.13;;
41514;SDS011;27247;48.020;16.720;2023-03-01T06:41:12;80.35;;;34.10;;
41514;SDS011;27247;48.020;16.720;2023-03-01T06:45:23;74.88;;;34.53;;
41514;SDS011;27247;48.020;16.720;2023-03-01T06:49:34;80.43;;;35.33;;
41514;SDS011;27247;48.020;16.720;2023-03-01T06:53:45;82.25;;;36.65;;
41514;SDS011;27247;48.020;16.720;2023-03-01T06:57:56;81.30;;;36.95;;
41514;SDS011;27247;48.020;16.720;2023-03-01T07:02:11;82.72;;;36.20;;
41514;SDS011;27247;48.020;16.720;2023-03-01T07:06:22;83.53;;;36.80;;
41514;SDS011;27247;48.020;16.720;2023-03-01T07:10:33;158.18;;;42.05;;
41514;SDS011;27247;48.020;16.720;2023-03-01T07:14:43;87.47;;;37.45;;
41514;SDS011;27247;48.020;16.720;2023-03-01T07:18:54;79.75;;;34.90;;
41514;SDS011;27247;48.020;16.720;2023-03-01T07:23:05;82.18;;;35.80;;
41514;SDS011;27247;48.020;16.720;2023-03-01T07:27:16;78.03;;;35.50;;
41514;SDS011;27247;48.020;16.720;2023-03-01T07:31:26;83.93;;;36.60;;
41514;SDS011;27247;48.020;16.720;2023-03-01T07:35:37;78.68;;;37.17;;
41514;SDS011;27247;48.020;16.720;2023-03-01T07:39:48;79.20;;;35.33;;
41514;SDS011;27247;48.020;16.720;2023-03-01T07:43:58;84.30;;;36.45;;
41514;SDS011;27247;48.020;16.720;2023-03-01T07:48:09;75.72;;;36.13;;
41514;SDS011;27247;48.020;16.720;2023-03-01T07:52:20;94.65;;;35.70;;
41514;SDS011;27247;48.020;16.720;2023-03-01T07:56:30;85.55;;;37.47;;
41514;SDS011;27247;48.020;16.720;2023-03-01T08:00:40;80.72;;;36.15;;
41514;SDS011;27247;48.020;16.720;2023-03-01T08:04:51;73.60;;;35.88;;
41514;SDS011;27247;48.020;16.720;2023-03-01T08:09:01;79.13;;;36.05;;
41514;SDS011;27247;48.020;16.720;2023-03-01T08:13:12;82.70;;;37.08;;
41514;SDS011;27247;48.020;16.720;2023-03-01T08:17:22;270.33;;;44.97;;
41514;SDS011;27247;48.020;16.720;2023-03-01T08:21:33;73.78;;;35.35;;
41514;SDS011;27247;48.020;16.720;2023-03-01T08:25:46;81.18;;;34.88;;
41514;SDS011;27247;48.020;16.720;2023-03-01T08:29:57;79.70;;;36.78;;
41514;SDS011;27247;48.020;16.720;2023-03-01T08:34:09;78.13;;;37.27;;
41514;SDS011;27247;48.020;16.720;2023-03-01T08:38:21;79.20;;;35.97;;
41514;SDS011;27247;48.020;16.720;2023-03-01T08:42:32;80.03;;;35.33;;
41514;SDS011;27247;48.020;16.720;2023-03-01T08:46:43;79.25;;;35.97;;
41514;SDS011;27247;48.020;16.720;2023-03-01T08:50:54;378.10;;;53.58;;
41514;SDS011;27247;48.020;16.720;2023-03-01T08:55:05;70.03;;;34.55;;
41514;SDS011;27247;48.020;16.720;2023-03-01T08:59:17;71.35;;;33.10;;
41514;SDS011;27247;48.020;16.720;2023-03-01T09:03:27;79.32;;;33.88;;
41514;SDS011;27247;48.020;16.720;2023-03-01T09:07:38;64.07;;;32.17;;
41514;SDS011;27247;48.020;16.720;2023-03-01T09:11:49;68.18;;;32.65;;
41514;SDS011;27247;48.020;16.720;2023-03-01T09:16:01;81.00;;;33.05;;
41514;SDS011;27247;48.020;16.720;2023-03-01T09:20:14;65.20;;;33.20;;
41514;SDS011;27247;48.020;16.720;2023-03-01T09:24:24;90.50;;;33.08;;
41514;SDS011;27247;48.020;16.720;2023-03-01T09:28:35;61.47;;;31.70;;
41514;SDS011;27247;48.020;16.720;2023-03-01T09:32:47;60.22;;;32.08;;
41514;SDS011;27247;48.020;16.720;2023-03-01T09:36:58;57.90;;;29.92;;
41514;SDS011;27247;48.020;16.720;2023-03-01T09:45:38;59.75;;;29.88;;
41514;SDS011;27247;48.020;16.720;2023-03-01T09:54:14;57.20;;;30.85;;
41514;SDS011;27247;48.020;16.720;2023-03-01T09:58:39;53.22;;;28.48;;
41514;SDS011;27247;48.020;16.720;2023-03-01T10:12:20;51.38;;;26.65;;
41514;SDS011;27247;48.020;16.720;2023-03-01T10:16:37;44.70;;;24.90;;
41514;SDS011;27247;48.020;16.720;2023-03-01T10:21:02;46.45;;;27.08;;
41514;SDS011;27247;48.020;16.720;2023-03-01T10:25:36;47.92;;;24.55;;
41514;SDS011;27247;48.020;16.720;2023-03-01T10:34:31;41.40;;;23.58;;
41514;SDS011;27247;48.020;16.720;2023-03-01T10:39:02;42.88;;;23.83;;
41514;SDS011;27247;48.020;16.720;2023-03-01T10:43:21;40.83;;;22.05;;
41514;SDS011;27247;48.020;16.720;2023-03-01T10:47:32;36.38;;;20.73;;
41514;SDS011;27247;48.020;16.720;2023-03-01T10:51:44;36.08;;;20.60;;
41514;SDS011;27247;48.020;16.720;2023-03-01T10:55:57;48.03;;;24.77;;
41514;SDS011;27247;48.020;16.720;2023-03-01T11:04:20;39.07;;;21.63;;
41514;SDS011;27247;48.020;16.720;2023-03-01T11:12:44;35.05;;;19.20;;
41514;SDS011;27247;48.020;16.720;2023-03-01T11:17:05;35.43;;;20.07;;
41514;SDS011;27247;48.020;16.720;2023-03-01T11:21:23;34.85;;;20.20;;
41514;SDS011;27247;48.020;16.720;2023-03-01T11:25:37;43.58;;;20.95;;
41514;SDS011;27247;48.020;16.720;2023-03-01T11:30:04;32.83;;;19.10;;
41514;SDS011;27247;48.020;16.720;2023-03-01T11:34:27;31.50;;;20.00;;
41514;SDS011;27247;48.020;16.720;2023-03-01T11:38:49;26.85;;;16.13;;
41514;SDS011;27247;48.020;16.720;2023-03-01T11:52:04;41.10;;;20.90;;
41514;SDS011;27247;48.020;16.720;2023-03-01T12:01:11;32.42;;;18.95;;
41514;SDS011;27247;48.020;16.720;2023-03-01T12:23:47;35.97;;;19.25;;
41514;SDS011;27247;48.020;16.720;2023-03-01T12:28:04;33.05;;;18.85;;
41514;SDS011;27247;48.020;16.720;2023-03-01T12:42:15;29.58;;;16.45;;
41514;SDS011;27247;48.020;16.720;2023-03-01T12:50:56;32.92;;;17.48;;
41514;SDS011;27247;48.020;16.720;2023-03-01T12:55:23;32.47;;;18.98;;
41514;SDS011;27247;48.020;16.720;2023-03-01T13:12:42;31.40;;;16.27;;
41514;SDS011;27247;48.020;16.720;2023-03-01T13:16:55;31.02;;;17.73;;
41514;SDS011;27247;48.020;16.720;2023-03-01T13:21:05;29.17;;;16.63;;
41514;SDS011;27247;48.020;16.720;2023-03-01T13:25:17;28.30;;;17.42;;
41514;SDS011;27247;48.020;16.720;2023-03-01T13:29:29;29.13;;;16.30;;
41514;SDS011;27247;48.020;16.720;2023-03-01T13:33:55;31.45;;;15.60;;
41514;SDS011;27247;48.020;16.720;2023-03-01T13:42:57;26.25;;;15.85;;
41514;SDS011;27247;48.020;16.720;2023-03-01T13:47:38;25.00;;;14.23;;
41514;SDS011;27247;48.020;16.720;2023-03-01T13:51:49;24.88;;;15.35;;
41514;SDS011;27247;48.020;16.720;2023-03-01T13:56:02;30.80;;;14.65;;
41514;SDS011;27247;48.020;16.720;2023-03-01T14:05:05;25.25;;;14.38;;
41514;SDS011;27247;48.020;16.720;2023-03-01T14:09:22;26.02;;;14.13;;
41514;SDS011;27247;48.020;16.720;2023-03-01T14:18:25;28.42;;;15.07;;
41514;SDS011;27247;48.020;16.720;2023-03-01T14:22:43;26.20;;;15.48;;
41514;SDS011;27247;48.020;16.720;2023-03-01T14:26:55;32.85;;;16.90;;
41514;SDS011;27247;48.020;16.720;2023-03-01T14:35:57;23.48;;;13.73;;
41514;SDS011;27247;48.020;16.720;2023-03-01T14:40:28;26.13;;;13.95;;
41514;SDS011;27247;48.020;16.720;2023-03-01T14:44:42;24.95;;;14.95;;
41514;SDS011;27247;48.020;16.720;2023-03-01T14:48:56;25.30;;;12.98;;
41514;SDS011;27247;48.020;16.720;2023-03-01T14:53:24;25.08;;;13.30;;
41514;SDS011;27247;48.020;16.720;2023-03-01T14:57:37;28.88;;;15.38;;
41514;SDS011;27247;48.020;16.720;2023-03-01T15:01:55;26.92;;;15.65;;
41514;SDS011;27247;48.020;16.720;2023-03-01T15:06:07;28.45;;;15.88;;
41514;SDS011;27247;48.020;16.720;2023-03-01T15:10:23;25.08;;;15.43;;
41514;SDS011;27247;48.020;16.720;2023-03-01T15:14:39;24.42;;;15.18;;
41514;SDS011;27247;48.020;16.720;2023-03-01T15:18:55;31.00;;;16.55;;
41514;SDS011;27247;48.020;16.720;2023-03-01T15:27:36;26.45;;;16.33;;
41514;SDS011;27247;48.020;16.720;2023-03-01T15:32:03;30.08;;;16.42;;
41514;SDS011;27247;48.020;16.720;2023-03-01T15:40:50;28.63;;;16.50;;
41514;SDS011;27247;48.020;16.720;2023-03-01T15:45:19;28.45;;;15.55;;
41514;SDS011;27247;48.020;16.720;2023-03-01T15:53:52;28.40;;;14.98;;
41514;SDS011;27247;48.020;16.720;2023-03-01T15:58:09;27.63;;;13.93;;
41514;SDS011;27247;48.020;16.720;2023-03-01T16:02:21;25.83;;;14.82;;
41514;SDS011;27247;48.020;16.720;2023-03-01T16:06:33;23.42;;;14.27;;
41514;SDS011;27247;48.020;16.720;2023-03-01T16:10:43;21.08;;;14.05;;
41514;SDS011;27247;48.020;16.720;2023-03-01T16:14:54;21.58;;;12.75;;
41514;SDS011;27247;48.020;16.720;2023-03-01T16:19:07;21.27;;;14.30;;
41514;SDS011;27247;48.020;16.720;2023-03-01T16:23:17;22.90;;;14.20;;
41514;SDS011;27247;48.020;16.720;2023-03-01T16:27:28;30.63;;;15.67;;
41514;SDS011;27247;48.020;16.720;2023-03-01T16:31:38;27.90;;;15.23;;
41514;SDS011;27247;48.020;16.720;2023-03-01T16:35:49;23.92;;;14.73;;
41514;SDS011;27247;48.020;16.720;2023-03-01T16:39:59;25.48;;;14.68;;
41514;SDS011;27247;48.020;16.720;2023-03-01T16:44:10;24.52;;;15.32;;
41514;SDS011;27247;48.020;16.720;2023-03-01T16:48:21;32.13;;;17.83;;
41514;SDS011;27247;48.020;16.720;2023-03-01T16:52:33;41.00;;;19.00;;
41514;SDS011;27247;48.020;16.720;2023-03-01T16:56:43;27.13;;;17.05;;
41514;SDS011;27247;48.020;16.720;2023-03-01T17:00:54;30.90;;;17.17;;
41514;SDS011;27247;48.020;16.720;2023-03-01T17:05:06;29.40;;;17.03;;
41514;SDS011;27247;48.020;16.720;2023-03-01T17:09:17;28.85;;;17.08;;
41514;SDS011;27247;48.020;16.720;2023-03-01T17:13:31;31.42;;;18.38;;
41514;SDS011;27247;48.020;16.720;2023-03-01T17:17:42;33.63;;;18.65;;
41514;SDS011;27247;48.020;16.720;2023-03-01T17:21:53;28.33;;;16.58;;
41514;SDS011;27247;48.020;16.720;2023-03-01T17:26:03;29.95;;;17.27;;
41514;SDS011;27247;48.020;16.720;2023-03-01T17:30:14;26.48;;;15.32;;
41514;SDS011;27247;48.020;16.720;2023-03-01T17:34:25;27.23;;;16.10;;
41514;SDS011;27247;48.020;16.720;2023-03-01T17:38:36;38.85;;;20.77;;
41514;SDS011;27247;48.020;16.720;2023-03-01T17:42:46;44.35;;;21.92;;
41514;SDS011;27247;48.020;16.720;2023-03-01T17:46:57;34.17;;;19.95;;
41514;SDS011;27247;48.020;16.720;2023-03-01T17:51:08;31.23;;;18.23;;
41514;SDS011;27247;48.020;16.720;2023-03-01T17:55:21;38.70;;;20.15;;
41514;SDS011;27247;48.020;16.720;2023-03-01T17:59:31;32.28;;;18.00;;
41514;SDS011;27247;48.020;16.720;2023-03-01T18:03:46;29.17;;;17.30;;
41514;SDS011;27247;48.020;16.720;2023-03-01T18:07:57;33.35;;;17.42;;
41514;SDS011;27247;48.020;16.720;2023-03-01T18:12:07;29.13;;;16.50;;
41514;SDS011;27247;48.020;16.720;2023-03-01T18:16:20;30.02;;;16.63;;
41514;SDS011;27247;48.020;16.720;2023-03-01T18:20:31;25.45;;;15.38;;
41514;SDS011;27247;48.020;16.720;2023-03-01T18:24:43;26.30;;;16.40;;
41514;SDS011;27247;48.020;16.720;2023-03-01T18:28:54;26.67;;;15.63;;
41514;SDS011;27247;48.020;16.720;2023-03-01T18:33:07;30.08;;;16.27;;
41514;SDS011;27247;48.020;16.720;2023-03-01T18:37:17;29.90;;;16.30;;
41514;SDS011;27247;48.020;16.720;2023-03-01T18:41:28;29.52;;;16.27;;
41514;SDS011;27247;48.020;16.720;2023-03-01T18:45:39;27.15;;;15.30;;
41514;SDS011;27247;48.020;16.720;2023-03-01T18:49:49;27.25;;;15.75;;
41514;SDS011;27247;48.020;16.720;2023-03-01T18:54:01;32.13;;;17.77;;
41514;SDS011;27247;48.020;16.720;2023-03-01T18:58:12;30.63;;;17.02;;
41514;SDS011;27247;48.020;16.720;2023-03-01T19:02:24;29.10;;;16.27;;
41514;SDS011;27247;48.020;16.720;2023-03-01T19:06:35;34.35;;;17.88;;
41514;SDS011;27247;48.020;16.720;2023-03-01T19:10:53;32.38;;;18.60;;
41514;SDS011;27247;48.020;16.720;2023-03-01T19:15:08;37.92;;;19.63;;
41514;SDS011;27247;48.020;16.720;2023-03-01T19:19:19;34.80;;;19.60;;
41514;SDS011;27247;48.020;16.720;2023-03-01T19:23:31;42.00;;;21.50;;
41514;SDS011;27247;48.020;16.720;2023-03-01T19:27:45;34.08;;;19.67;;
41514;SDS011;27247;48.020;16.720;2023-03-01T19:31:58;41.05;;;22.45;;
41514;SDS011;27247;48.020;16.720;2023-03-01T19:36:09;38.00;;;21.05;;
41514;SDS011;27247;48.020;16.720;2023-03-01T19:40:22;46.33;;;22.08;;
41514;SDS011;27247;48.020;16.720;2023-03-01T19:44:32;47.85;;;24.98;;
41514;SDS011;27247;48.020;16.720;2023-03-01T19:48:43;82.28;;;39.38;;
41514;SDS011;27247;48.020;16.720;2023-03-01T19:52:55;90.07;;;41.97;;
41514;SDS011;27247;48.020;16.720;2023-03-01T19:57:06;80.03;;;38.30;;
41514;SDS011;27247;48.020;16.720;2023-03-01T20:01:18;58.72;;;28.05;;
41514;SDS011;27247;48.020;16.720;2023-03-01T20:05:33;52.35;;;24.67;;
41514;SDS011;27247;48.020;16.720;2023-03-01T20:09:45;50.47;;;24.92;;
41514;SDS011;27247;48.020;16.720;2023-03-01T20:13:56;55.72;;;25.38;;
41514;SDS011;27247;48.020;16.720;2023-03-01T20:18:08;56.58;;;26.45;;
41514;SDS011;27247;48.020;16.720;2023-03-01T20:22:20;57.67;;;27.90;;
41514;SDS011;27247;48.020;16.720;2023-03-01T20:26:31;53.20;;;26.58;;
41514;SDS011;27247;48.020;16.720;2023-03-01T20:30:42;60.50;;;28.92;;
41514;SDS011;27247;48.020;16.720;2023-03-01T20:34:54;64.25;;;29.85;;
41514;SDS011;27247;48.020;16.720;2023-03-01T20:39:04;57.72;;;28.08;;
41514;SDS011;27247;48.020;16.720;2023-03-01T20:43:15;67.80;;;30.23;;
41514;SDS011;27247;48.020;16.720;2023-03-01T20:47:27;67.90;;;31.20;;
41514;SDS011;27247;48.020;16.720;2023-03-01T20:51:37;66.57;;;30.63;;
41514;SDS011;27247;48.020;16.720;2023-03-01T20:55:48;73.63;;;33.80;;
41514;SDS011;27247;48.020;16.720;2023-03-01T20:59:59;71.90;;;33.72;;
41514;SDS011;27247;48.020;16.720;2023-03-01T21:04:10;61.70;;;32.13;;
41514;SDS011;27247;48.020;16.720;2023-03-01T21:08:22;65.75;;;31.50;;
41514;SDS011;27247;48.020;16.720;2023-03-01T21:12:32;65.63;;;30.67;;
41514;SDS011;27247;48.020;16.720;2023-03-01T21:16:43;61.20;;;33.00;;
41514;SDS011;27247;48.020;16.720;2023-03-01T21:20:58;72.93;;;34.60;;
41514;SDS011;27247;48.020;16.720;2023-03-01T21:25:16;67.72;;;33.30;;
41514;SDS011;27247;48.020;16.720;2023-03-01T21:29:30;70.93;;;33.65;;
41514;SDS011;27247;48.020;16.720;2023-03-01T21:33:53;66.72;;;31.55;;
41514;SDS011;27247;48.020;16.720;2023-03-01T21:38:09;73.32;;;33.25;;
41514;SDS011;27247;48.020;16.720;2023-03-01T21:42:19;72.38;;;32.75;;
41514;SDS011;27247;48.020;16.720;2023-03-01T21:46:30;77.43;;;34.03;;
41514;SDS011;27247;48.020;16.720;2023-03-01T21:50:43;69.38;;;34.60;;
41514;SDS011;27247;48.020;16.720;2023-03-01T21:54:53;71.15;;;33.35;;
41514;SDS011;27247;48.020;16.720;2023-03-01T21:59:05;71.18;;;33.53;;
41514;SDS011;27247;48.020;16.720;2023-03-01T22:03:17;68.43;;;32.95;;
41514;SDS011;27247;48.020;16.720;2023-03-01T22:07:28;78.82;;;34.67;;
41514;SDS011;27247;48.020;16.720;2023-03-01T22:11:41;74.07;;;33.85;;
41514;SDS011;27247;48.020;16.720;2023-03-01T22:16:03;71.75;;;33.35;;
41514;SDS011;27247;48.020;16.720;2023-03-01T22:20:14;74.45;;;34.53;;
41514;SDS011;27247;48.020;16.720;2023-03-01T22:24:25;70.82;;;34.55;;
41514;SDS011;27247;48.020;16.720;2023-03-01T22:28:35;77.55;;;33.75;;
41514;SDS011;27247;48.020;16.720;2023-03-01T22:32:46;71.95;;;33.25;;
41514;SDS011;27247;48.020;16.720;2023-03-01T22:36:56;77.45;;;34.63;;
41514;SDS011;27247;48.020;16.720;2023-03-01T22:41:07;72.90;;;35.65;;
41514;SDS011;27247;48.020;16.720;2023-03-01T22:45:18;88.15;;;37.58;;
41514;SDS011;27247;48.020;16.720;2023-03-01T22:49:29;84.82;;;36.45;;
41514;SDS011;27247;48.020;16.720;2023-03-01T22:53:39;80.35;;;37.17;;
41514;SDS011;27247;48.020;16.720;2023-03-01T22:57:50;92.03;;;41.13;;
41514;SDS011;27247;48.020;16.720;2023-03-01T23:02:00;94.35;;;41.17;;
41514;SDS011;27247;48.020;16.720;2023-03-01T23:06:11;85.18;;;41.55;;
41514;SDS011;27247;48.020;16.720;2023-03-01T23:10:22;93.03;;;44.40;;
41514;SDS011;27247;48.020;16.720;2023-03-01T23:14:32;103.28;;;46.38;;
41514;SDS011;27247;48.020;16.720;2023-03-01T23:18:43;103.10;;;46.50;;
41514;SDS011;27247;48.020;16.720;2023-03-01T23:22:54;113.05;;;49.05;;
41514;SDS011;27247;48.020;16.720;2023-03-01T23:27:10;110.28;;;48.72;;
41514;SDS011;27247;48.020;16.720;2023-03-01T23:31:24;107.78;;;49.75;;
41514;SDS011;27247;48.020;16.720;2023-03-01T23:35:38;136.10;;;63.60;;
41514;SDS011;27247;48.020;16.720;2023-03-01T23:39:49;120.83;;;52.47;;
41514;SDS011;27247;48.020;16.720;2023-03-01T23:44:00;114.32;;;50.63;;
41514;SDS011;27247;48.020;16.720;2023-03-01T23:48:12;107.10;;;50.13;;
41514;SDS011;27247;48.020;16.720;2023-03-01T23:52:23;115.32;;;50.47;;
41514;SDS011;27247;48.020;16.720;2023-03-01T23:56:34;115.95;;;50.47;;
